Time;durP1;ratioP1;P1;durP2;ratioP2;P2;SDS_P1;SDS_P2;PMS_P1;PMS_P2;Temp;Humidity;BMP_temperature;BMP_pressure;BME280_temperature;BME280_humidity;BME280_pressure;Samples;Min_cycle;Max_cycle;Signal;HPM_P1;HPM_P2
2023/05/12 00:01:27;;;;;;;8.45;5.03;;;;;;;;;;5051682;28;20429;-78
2023/05/12 00:03:52;;;;;;;8.52;5.55;;;;;;;;;;5084641;28;20031;-78
2023/05/12 00:06:19;;;;;;;6.85;5.72;;;;;;;;;;5069649;28;20379;-78
2023/05/12 00:08:44;;;;;;;9.05;5.15;;;;;;;;;;5069348;28;20423;-77
2023/05/12 00:11:10;;;;;;;9.02;5.13;;;;;;;;;;5069792;28;20051;-78
2023/05/12 00:13:36;;;;;;;12.00;6.05;;;;;;;;;;5069477;28;20475;-78
2023/05/12 00:16:02;;;;;;;9.30;4.65;;;;;;;;;;5053453;28;20052;-77
2023/05/12 00:18:28;;;;;;;7.63;5.97;;;;;;;;;;5055528;28;20008;-79
2023/05/12 00:20:54;;;;;;;9.00;5.15;;;;;;;;;;5055311;28;20107;-77
2023/05/12 00:23:20;;;;;;;8.07;4.90;;;;;;;;;;5073269;28;20027;-78
2023/05/12 00:25:45;;;;;;;10.80;5.85;;;;;;;;;;5054698;28;20028;-77
2023/05/12 00:28:11;;;;;;;12.00;6.95;;;;;;;;;;5072886;28;20028;-77
2023/05/12 00:30:37;;;;;;;8.05;5.63;;;;;;;;;;5073225;28;20106;-78
2023/05/12 00:33:02;;;;;;;7.80;5.43;;;;;;;;;;5073651;28;20475;-75
2023/05/12 00:35:28;;;;;;;12.70;6.28;;;;;;;;;;5072966;28;20472;-79
2023/05/12 00:37:53;;;;;;;10.75;5.43;;;;;;;;;;5054799;28;20021;-78
2023/05/12 00:40:19;;;;;;;8.70;5.97;;;;;;;;;;5072970;28;20482;-77
2023/05/12 00:42:44;;;;;;;13.75;5.60;;;;;;;;;;5073103;28;20020;-76
2023/05/12 00:45:10;;;;;;;7.15;5.60;;;;;;;;;;5088116;28;20379;-77
2023/05/12 00:47:36;;;;;;;9.00;6.55;;;;;;;;;;5054672;28;20025;-78
2023/05/12 00:50:03;;;;;;;7.63;5.40;;;;;;;;;;5072187;28;20029;-77
2023/05/12 00:52:28;;;;;;;9.05;7.60;;;;;;;;;;5054419;28;20024;-77
2023/05/12 00:54:55;;;;;;;9.65;5.88;;;;;;;;;;5054331;28;20033;-77
2023/05/12 00:57:24;;;;;;;8.02;4.60;;;;;;;;;;5054464;28;20051;-77
2023/05/12 00:59:49;;;;;;;12.32;5.53;;;;;;;;;;5054083;28;20032;-76
2023/05/12 01:02:15;;;;;;;8.52;5.35;;;;;;;;;;5072222;28;20491;-78
2023/05/12 01:04:41;;;;;;;7.90;5.07;;;;;;;;;;5072150;28;20024;-75
2023/05/12 01:07:17;;;;;;;11.30;5.20;;;;;;;;;;5072337;28;20027;-77
2023/05/12 01:09:42;;;;;;;7.35;4.85;;;;;;;;;;5072135;28;20430;-77
2023/05/12 01:12:08;;;;;;;6.25;5.10;;;;;;;;;;5072631;28;20028;-77
2023/05/12 01:14:35;;;;;;;9.00;5.38;;;;;;;;;;5087561;28;20030;-78
2023/05/12 01:17:05;;;;;;;7.53;5.00;;;;;;;;;;5072071;28;20052;-76
2023/05/12 01:19:45;;;;;;;9.57;5.95;;;;;;;;;;5072338;28;20475;-78
2023/05/12 01:22:11;;;;;;;6.88;5.13;;;;;;;;;;5054010;28;20093;-77
2023/05/12 01:24:54;;;;;;;10.18;5.40;;;;;;;;;;5054478;28;20065;-75
2023/05/12 01:27:21;;;;;;;7.30;5.32;;;;;;;;;;5053797;28;20538;-77
2023/05/12 01:29:50;;;;;;;12.95;5.78;;;;;;;;;;5072643;28;20521;-77
2023/05/12 01:32:16;;;;;;;10.50;5.25;;;;;;;;;;5072079;28;20044;-77
2023/05/12 01:34:42;;;;;;;10.63;6.30;;;;;;;;;;5053556;28;20028;-77
2023/05/12 01:37:08;;;;;;;10.00;6.07;;;;;;;;;;5071689;28;20012;-77
2023/05/12 01:39:35;;;;;;;13.70;5.80;;;;;;;;;;5053097;28;20028;-77
2023/05/12 01:42:01;;;;;;;10.10;5.93;;;;;;;;;;5052355;28;20505;-78
2023/05/12 01:44:27;;;;;;;9.52;5.40;;;;;;;;;;5070637;28;20119;-77
2023/05/12 01:46:52;;;;;;;11.38;6.40;;;;;;;;;;5070949;28;20108;-77
2023/05/12 01:49:18;;;;;;;9.38;6.63;;;;;;;;;;5071482;28;20081;-76
2023/05/12 01:51:43;;;;;;;10.73;5.97;;;;;;;;;;5071179;28;20051;-78
2023/05/12 01:54:09;;;;;;;8.48;5.70;;;;;;;;;;5071032;28;20392;-77
2023/05/12 01:56:35;;;;;;;10.43;5.45;;;;;;;;;;5070931;28;20106;-78
2023/05/12 01:59:00;;;;;;;7.97;5.97;;;;;;;;;;5053406;28;20027;-78
2023/05/12 02:01:27;;;;;;;11.38;5.80;;;;;;;;;;5053222;28;20032;-76
2023/05/12 02:03:56;;;;;;;9.30;5.82;;;;;;;;;;5053071;28;20481;-77
2023/05/12 02:06:21;;;;;;;12.50;5.93;;;;;;;;;;5053137;28;20033;-77
2023/05/12 02:08:47;;;;;;;10.13;5.90;;;;;;;;;;5070686;28;20513;-78
2023/05/12 02:11:14;;;;;;;9.32;6.00;;;;;;;;;;5070873;28;20031;-77
2023/05/12 02:13:40;;;;;;;10.73;5.53;;;;;;;;;;5070654;28;20511;-78
2023/05/12 02:16:07;;;;;;;8.30;5.63;;;;;;;;;;5070854;28;20035;-78
2023/05/12 02:18:32;;;;;;;9.95;6.20;;;;;;;;;;5070848;28;20512;-76
2023/05/12 02:20:58;;;;;;;9.80;5.30;;;;;;;;;;5070535;28;20100;-78
2023/05/12 02:23:24;;;;;;;11.52;5.55;;;;;;;;;;5036176;28;20461;-78
2023/05/12 02:25:49;;;;;;;11.20;6.38;;;;;;;;;;5052498;28;20028;-76
2023/05/12 02:28:15;;;;;;;13.80;7.00;;;;;;;;;;5070642;28;20514;-78
2023/05/12 02:30:45;;;;;;;10.18;6.07;;;;;;;;;;5036111;28;20028;-78
2023/05/12 02:33:11;;;;;;;9.40;5.28;;;;;;;;;;5070783;28;20414;-78
2023/05/12 02:35:37;;;;;;;10.82;5.85;;;;;;;;;;5052163;28;20047;-77
2023/05/12 02:38:03;;;;;;;9.55;6.13;;;;;;;;;;5052056;28;20024;-77
2023/05/12 02:40:29;;;;;;;12.85;6.07;;;;;;;;;;5070832;28;20075;-77
2023/05/12 02:42:55;;;;;;;9.85;6.47;;;;;;;;;;5035618;28;20147;-77
2023/05/12 02:45:21;;;;;;;8.77;5.97;;;;;;;;;;5070315;28;20040;-79
2023/05/12 02:47:47;;;;;;;7.65;5.93;;;;;;;;;;5052712;28;20094;-79
2023/05/12 02:50:15;;;;;;;10.43;6.70;;;;;;;;;;5071186;28;20098;-79
2023/05/12 02:52:40;;;;;;;9.70;5.97;;;;;;;;;;5070463;28;20035;-79
2023/05/12 02:55:06;;;;;;;13.38;6.70;;;;;;;;;;5053103;28;20033;-80
2023/05/12 02:57:32;;;;;;;10.63;6.72;;;;;;;;;;5070461;28;20076;-79
2023/05/12 03:00:05;;;;;;;12.57;7.78;;;;;;;;;;5070392;28;20052;-79
2023/05/12 03:02:31;;;;;;;11.63;7.07;;;;;;;;;;5052922;28;20032;-78
2023/05/12 03:04:57;;;;;;;16.38;6.78;;;;;;;;;;5052241;28;20033;-79
2023/05/12 03:07:22;;;;;;;8.95;6.68;;;;;;;;;;5051981;28;20476;-78
2023/05/12 03:09:48;;;;;;;15.32;6.40;;;;;;;;;;5051515;28;20024;-78
2023/05/12 03:12:14;;;;;;;12.48;6.40;;;;;;;;;;5052022;28;20377;-78
2023/05/12 03:14:39;;;;;;;16.77;7.13;;;;;;;;;;5070225;28;20486;-77
2023/05/12 03:17:05;;;;;;;16.67;7.30;;;;;;;;;;5070007;28;20024;-76
2023/05/12 03:19:30;;;;;;;10.50;6.53;;;;;;;;;;5070047;28;20031;-78
2023/05/12 03:21:56;;;;;;;13.40;6.25;;;;;;;;;;5070023;28;20025;-78
2023/05/12 03:24:21;;;;;;;10.90;6.53;;;;;;;;;;5070078;28;20026;-78
2023/05/12 03:26:47;;;;;;;9.43;6.03;;;;;;;;;;5051491;28;20032;-78
2023/05/12 03:29:13;;;;;;;13.32;7.57;;;;;;;;;;5052223;28;20036;-78
2023/05/12 03:31:39;;;;;;;12.70;6.72;;;;;;;;;;5051687;28;20024;-78
2023/05/12 03:34:05;;;;;;;10.93;7.72;;;;;;;;;;5052012;28;20020;-77
2023/05/12 03:36:30;;;;;;;12.20;7.43;;;;;;;;;;5052026;28;20024;-78
2023/05/12 03:38:56;;;;;;;18.10;6.97;;;;;;;;;;5069857;28;20483;-78
2023/05/12 03:41:21;;;;;;;12.40;6.35;;;;;;;;;;5051780;28;20055;-79
2023/05/12 03:43:47;;;;;;;13.55;7.53;;;;;;;;;;5051176;28;20024;-78
2023/05/12 03:46:13;;;;;;;12.52;6.80;;;;;;;;;;5069594;28;20036;-77
2023/05/12 03:48:38;;;;;;;11.77;7.15;;;;;;;;;;5069580;28;20377;-77
2023/05/12 03:51:04;;;;;;;12.57;6.88;;;;;;;;;;5073321;28;20029;-77
2023/05/12 03:53:29;;;;;;;9.10;6.55;;;;;;;;;;5073618;28;20035;-79
2023/05/12 03:55:55;;;;;;;11.98;7.50;;;;;;;;;;5072971;28;20458;-77
2023/05/12 03:58:23;;;;;;;12.88;6.88;;;;;;;;;;5073490;28;20115;-78
2023/05/12 04:00:49;;;;;;;9.95;7.05;;;;;;;;;;5055239;28;20446;-77
2023/05/12 04:03:15;;;;;;;14.18;7.00;;;;;;;;;;5055324;28;20062;-77
2023/05/12 04:05:41;;;;;;;14.75;7.70;;;;;;;;;;5073190;28;20368;-77
2023/05/12 04:08:07;;;;;;;11.27;7.10;;;;;;;;;;5055490;28;20028;-79
2023/05/12 04:10:38;;;;;;;12.63;8.32;;;;;;;;;;5055288;28;20028;-78
2023/05/12 04:13:04;;;;;;;13.20;7.43;;;;;;;;;;5055066;28;20396;-77
2023/05/12 04:15:30;;;;;;;12.13;8.10;;;;;;;;;;5073715;28;20043;-79
2023/05/12 04:17:55;;;;;;;16.83;8.18;;;;;;;;;;5073600;28;20043;-77
2023/05/12 04:20:21;;;;;;;13.38;8.25;;;;;;;;;;5055326;28;20083;-77
2023/05/12 04:22:46;;;;;;;14.27;7.65;;;;;;;;;;5073353;28;20124;-78
2023/05/12 04:25:12;;;;;;;18.92;8.27;;;;;;;;;;5056155;28;20028;-77
2023/05/12 04:27:37;;;;;;;14.50;7.47;;;;;;;;;;5073424;28;20036;-77
2023/05/12 04:30:03;;;;;;;12.50;7.50;;;;;;;;;;5072990;28;20032;-77
2023/05/12 04:32:29;;;;;;;14.70;8.25;;;;;;;;;;5072590;28;20631;-78
2023/05/12 04:34:55;;;;;;;16.75;8.32;;;;;;;;;;5072627;28;20415;-78
2023/05/12 04:37:21;;;;;;;10.98;6.72;;;;;;;;;;5072786;28;20028;-78
2023/05/12 04:39:47;;;;;;;15.70;7.32;;;;;;;;;;5054804;28;20100;-77
2023/05/12 04:42:12;;;;;;;13.00;7.88;;;;;;;;;;5073029;28;20045;-78
2023/05/12 04:44:38;;;;;;;15.98;7.20;;;;;;;;;;5072679;28;20126;-78
2023/05/12 04:47:04;;;;;;;10.02;5.55;;;;;;;;;;5054461;28;20036;-77
2023/05/12 04:49:29;;;;;;;11.75;5.82;;;;;;;;;;5072980;28;20034;-77
2023/05/12 04:51:55;;;;;;;11.30;5.63;;;;;;;;;;5072340;28;20028;-78
2023/05/12 04:54:21;;;;;;;11.23;6.28;;;;;;;;;;5050174;28;20033;-76
2023/05/12 04:56:46;;;;;;;11.55;6.03;;;;;;;;;;5052041;28;20195;-78
2023/05/12 04:59:14;;;;;;;16.55;6.35;;;;;;;;;;5034370;28;20040;-79
2023/05/12 05:01:41;;;;;;;8.95;6.32;;;;;;;;;;5052343;28;20032;-78
2023/05/12 05:04:07;;;;;;;11.32;5.78;;;;;;;;;;5051679;28;20035;-79
2023/05/12 05:06:33;;;;;;;8.90;5.40;;;;;;;;;;5070353;28;20028;-78
2023/05/12 05:08:59;;;;;;;10.88;6.28;;;;;;;;;;5069581;28;20029;-78
2023/05/12 05:11:25;;;;;;;15.63;6.47;;;;;;;;;;5068142;28;20016;-78
2023/05/12 05:13:50;;;;;;;13.60;5.68;;;;;;;;;;5051844;28;20499;-78
2023/05/12 05:16:16;;;;;;;14.05;6.75;;;;;;;;;;5071091;28;20091;-80
2023/05/12 05:18:45;;;;;;;9.40;5.25;;;;;;;;;;5050154;28;20024;-81
2023/05/12 05:21:12;;;;;;;10.40;5.40;;;;;;;;;;5054687;28;20144;-78
2023/05/12 05:23:38;;;;;;;11.77;6.68;;;;;;;;;;5036814;28;20513;-78
2023/05/12 05:26:04;;;;;;;8.25;5.45;;;;;;;;;;5067073;28;20117;-80
2023/05/12 05:28:29;;;;;;;7.88;5.22;;;;;;;;;;5067729;28;20119;-79
2023/05/12 05:30:55;;;;;;;10.65;5.47;;;;;;;;;;5046251;28;20143;-78
2023/05/12 05:33:21;;;;;;;9.05;4.75;;;;;;;;;;5065411;28;20431;-80
2023/05/12 05:35:47;;;;;;;8.02;4.03;;;;;;;;;;5066537;28;20029;-78
2023/05/12 05:38:12;;;;;;;16.15;5.72;;;;;;;;;;5068981;28;20352;-78
2023/05/12 05:40:38;;;;;;;11.57;4.68;;;;;;;;;;5028299;28;20033;-78
2023/05/12 05:43:04;;;;;;;9.38;5.32;;;;;;;;;;5071073;28;20471;-77
2023/05/12 05:45:30;;;;;;;6.78;5.35;;;;;;;;;;5062227;28;20040;-77
2023/05/12 05:47:55;;;;;;;10.25;4.75;;;;;;;;;;5061434;28;20025;-77
2023/05/12 05:50:21;;;;;;;8.25;4.68;;;;;;;;;;5064463;28;20037;-78
2023/05/12 05:52:46;;;;;;;8.18;5.43;;;;;;;;;;5053858;28;20028;-78
2023/05/12 05:55:12;;;;;;;6.47;3.63;;;;;;;;;;5039405;28;20566;-77
2023/05/12 05:57:37;;;;;;;5.95;3.58;;;;;;;;;;5046433;28;20119;-75
2023/05/12 06:00:05;;;;;;;5.32;4.28;;;;;;;;;;5042399;28;20032;-78
2023/05/12 06:02:32;;;;;;;6.50;3.03;;;;;;;;;;5026036;28;20033;-78
2023/05/12 06:04:58;;;;;;;10.38;3.95;;;;;;;;;;5060708;28;20584;-77
2023/05/12 06:07:24;;;;;;;7.65;3.40;;;;;;;;;;5049321;28;20036;-79
2023/05/12 06:09:52;;;;;;;4.07;2.78;;;;;;;;;;5048605;28;20044;-78
2023/05/12 06:12:18;;;;;;;3.38;2.88;;;;;;;;;;5049568;28;20047;-80
2023/05/12 06:14:44;;;;;;;5.00;3.50;;;;;;;;;;5050368;28;20601;-76
2023/05/12 06:17:09;;;;;;;9.25;3.65;;;;;;;;;;5048690;28;20028;-79
2023/05/12 06:19:36;;;;;;;6.90;3.13;;;;;;;;;;5031646;28;20067;-77
2023/05/12 06:22:02;;;;;;;6.85;3.70;;;;;;;;;;5059553;28;20082;-77
2023/05/12 06:24:27;;;;;;;6.15;3.45;;;;;;;;;;5067450;28;20032;-79
2023/05/12 06:26:53;;;;;;;8.35;3.65;;;;;;;;;;5045159;28;20128;-78
2023/05/12 06:29:20;;;;;;;3.17;2.88;;;;;;;;;;5050762;28;20032;-80
2023/05/12 06:31:46;;;;;;;7.68;3.00;;;;;;;;;;5058351;28;20129;-81
2023/05/12 06:34:11;;;;;;;4.18;3.35;;;;;;;;;;5060330;28;20029;-77
2023/05/12 06:36:37;;;;;;;5.28;3.25;;;;;;;;;;5045963;28;20020;-76
2023/05/12 06:39:03;;;;;;;3.72;3.13;;;;;;;;;;5068241;28;20028;-75
2023/05/12 06:41:29;;;;;;;4.22;3.08;;;;;;;;;;5059848;28;20047;-77
2023/05/12 06:43:55;;;;;;;3.40;2.88;;;;;;;;;;5064424;28;20051;-78
2023/05/12 06:46:20;;;;;;;7.88;3.47;;;;;;;;;;5036594;28;20803;-78
2023/05/12 06:48:46;;;;;;;3.65;2.90;;;;;;;;;;5060478;28;20021;-78
2023/05/12 06:51:12;;;;;;;4.78;3.03;;;;;;;;;;5058359;28;20029;-77
2023/05/12 06:53:40;;;;;;;7.90;3.15;;;;;;;;;;5059792;28;20667;-78
2023/05/12 06:56:06;;;;;;;6.10;3.03;;;;;;;;;;5041075;28;20234;-80
2023/05/12 06:58:33;;;;;;;9.63;3.50;;;;;;;;;;5045626;28;20036;-80
2023/05/12 07:01:00;;;;;;;4.25;3.00;;;;;;;;;;5064448;28;20025;-84
2023/05/12 07:03:26;;;;;;;5.20;2.60;;;;;;;;;;5043248;28;20028;-79
2023/05/12 07:05:51;;;;;;;6.28;3.20;;;;;;;;;;5059429;28;20440;-81
2023/05/12 07:08:17;;;;;;;5.72;3.38;;;;;;;;;;5042132;28;20078;-79
2023/05/12 07:10:42;;;;;;;5.53;3.72;;;;;;;;;;5062351;28;20205;-79
2023/05/12 07:13:10;;;;;;;9.20;6.25;;;;;;;;;;5048989;28;20028;-80
2023/05/12 07:15:36;;;;;;;5.97;2.92;;;;;;;;;;5058036;28;20032;-77
2023/05/12 07:18:01;;;;;;;5.18;3.30;;;;;;;;;;5040737;28;20592;-77
2023/05/12 07:20:26;;;;;;;4.70;3.13;;;;;;;;;;5053226;28;20112;-78
2023/05/12 07:22:53;;;;;;;4.60;3.65;;;;;;;;;;5042725;28;20029;-78
2023/05/12 07:25:20;;;;;;;4.28;3.15;;;;;;;;;;5041529;28;20032;-78
2023/05/12 07:27:46;;;;;;;9.70;4.43;;;;;;;;;;5040220;28;20024;-78
2023/05/12 07:30:12;;;;;;;4.72;3.40;;;;;;;;;;5056007;28;20039;-79
2023/05/12 07:32:37;;;;;;;6.10;3.28;;;;;;;;;;5032163;28;20033;-78
2023/05/12 07:35:03;;;;;;;5.45;3.13;;;;;;;;;;5042729;28;20491;-79
2023/05/12 07:37:33;;;;;;;6.57;3.28;;;;;;;;;;5065658;28;20069;-81
2023/05/12 07:39:58;;;;;;;3.13;2.72;;;;;;;;;;5043872;28;20069;-77
2023/05/12 07:42:24;;;;;;;4.13;3.22;;;;;;;;;;5058735;28;20505;-80
2023/05/12 07:44:49;;;;;;;4.03;3.08;;;;;;;;;;5044304;28;20076;-79
2023/05/12 07:47:15;;;;;;;5.38;3.45;;;;;;;;;;5058319;28;20032;-80
2023/05/12 07:49:40;;;;;;;6.55;3.17;;;;;;;;;;5040632;28;20090;-80
2023/05/12 07:52:06;;;;;;;4.47;3.08;;;;;;;;;;5041382;28;20115;-81
2023/05/12 07:54:32;;;;;;;4.97;3.30;;;;;;;;;;5040808;28;20036;-79
2023/05/12 07:56:57;;;;;;;9.18;3.33;;;;;;;;;;5052210;28;20645;-82
2023/05/12 07:59:23;;;;;;;4.50;2.75;;;;;;;;;;5063957;28;20441;-78
2023/05/12 08:01:50;;;;;;;4.07;3.30;;;;;;;;;;5058263;28;20493;-78
2023/05/12 08:04:18;;;;;;;4.40;3.22;;;;;;;;;;5043159;28;20082;-82
2023/05/12 08:06:44;;;;;;;5.22;3.22;;;;;;;;;;5056520;28;20103;-81
2023/05/12 08:09:09;;;;;;;7.07;3.38;;;;;;;;;;5052532;28;20063;-77
2023/05/12 08:11:35;;;;;;;3.97;3.10;;;;;;;;;;5057979;28;20055;-77
2023/05/12 08:14:01;;;;;;;5.75;3.20;;;;;;;;;;5037251;28;20038;-81
2023/05/12 08:16:26;;;;;;;8.45;5.97;;;;;;;;;;5038017;28;20031;-77
2023/05/12 08:18:54;;;;;;;5.70;3.30;;;;;;;;;;5056349;28;20024;-82
2023/05/12 08:21:21;;;;;;;4.72;2.85;;;;;;;;;;5058510;28;20899;-78
2023/05/12 08:23:46;;;;;;;5.60;3.45;;;;;;;;;;5055980;28;20024;-80
2023/05/12 08:26:12;;;;;;;5.90;3.50;;;;;;;;;;5037942;28;20032;-80
2023/05/12 08:28:38;;;;;;;3.83;2.83;;;;;;;;;;5052423;28;20032;-81
2023/05/12 08:31:04;;;;;;;5.40;3.47;;;;;;;;;;5037545;28;20036;-75
2023/05/12 08:33:39;;;;;;;4.18;3.00;;;;;;;;;;5044068;28;20115;-84
2023/05/12 08:36:06;;;;;;;5.15;2.88;;;;;;;;;;5042244;28;20049;-81
2023/05/12 08:38:32;;;;;;;5.50;3.65;;;;;;;;;;5044150;28;20028;-79
2023/05/12 08:41:15;;;;;;;7.90;3.67;;;;;;;;;;5066568;28;20077;-80
2023/05/12 08:43:50;;;;;;;14.93;3.30;;;;;;;;;;5048467;28;20582;-79
2023/05/12 08:46:16;;;;;;;4.55;2.72;;;;;;;;;;5060860;28;20042;-80
2023/05/12 08:48:46;;;;;;;14.45;3.60;;;;;;;;;;5063189;28;20737;-81
2023/05/12 08:51:13;;;;;;;5.13;3.00;;;;;;;;;;5053121;28;20028;-81
2023/05/12 08:53:42;;;;;;;3.83;2.95;;;;;;;;;;5051883;28;20035;-83
2023/05/12 08:56:10;;;;;;;10.60;3.67;;;;;;;;;;5053346;28;20607;-80
2023/05/12 08:58:36;;;;;;;4.55;3.00;;;;;;;;;;5053994;28;20078;-82
2023/05/12 09:01:06;;;;;;;6.40;3.42;;;;;;;;;;5049580;28;20167;-83
2023/05/12 09:03:34;;;;;;;3.88;2.83;;;;;;;;;;5052627;28;20024;-78
2023/05/12 09:06:01;;;;;;;10.23;3.22;;;;;;;;;;5050054;28;20029;-76
2023/05/12 09:08:32;;;;;;;8.05;3.40;;;;;;;;;;5067644;28;20033;-80
2023/05/12 09:11:01;;;;;;;4.97;3.10;;;;;;;;;;5064024;28;20066;-80
2023/05/12 09:13:46;;;;;;;4.35;2.72;;;;;;;;;;5046852;28;20309;-80
2023/05/12 09:16:13;;;;;;;5.68;2.83;;;;;;;;;;5045618;28;20029;-78
2023/05/12 09:18:53;;;;;;;3.05;2.55;;;;;;;;;;5031154;28;20055;-78
2023/05/12 09:21:37;;;;;;;9.82;2.67;;;;;;;;;;5066731;28;20406;-78
2023/05/12 09:24:05;;;;;;;10.63;3.00;;;;;;;;;;5059139;28;20047;-79
2023/05/12 09:26:43;;;;;;;4.18;2.97;;;;;;;;;;5043848;28;20730;-80
2023/05/12 09:29:10;;;;;;;18.23;3.90;;;;;;;;;;5041593;28;20032;-78
2023/05/12 09:31:36;;;;;;;5.15;2.80;;;;;;;;;;5034869;28;20032;-76
2023/05/12 09:34:09;;;;;;;10.00;6.25;;;;;;;;;;5035652;28;20028;-76
2023/05/12 09:36:35;;;;;;;6.80;2.72;;;;;;;;;;5029528;28;20056;-80
2023/05/12 09:39:03;;;;;;;5.68;2.75;;;;;;;;;;5039286;28;20135;-80
2023/05/12 09:41:42;;;;;;;7.25;3.47;;;;;;;;;;5047403;28;20028;-81
2023/05/12 09:44:09;;;;;;;3.95;2.60;;;;;;;;;;5061548;28;20614;-78
2023/05/12 09:46:35;;;;;;;4.05;2.55;;;;;;;;;;5053089;28;20087;-81
2023/05/12 09:49:02;;;;;;;2.88;2.33;;;;;;;;;;5036972;28;20028;-78
2023/05/12 09:51:29;;;;;;;5.47;2.50;;;;;;;;;;5060814;28;20480;-81
2023/05/12 09:54:25;;;;;;;3.20;2.33;;;;;;;;;;5044489;28;20024;-78
2023/05/12 09:56:58;;;;;;;3.70;2.50;;;;;;;;;;5053630;28;20048;-77
2023/05/12 09:59:27;;;;;;;3.30;2.88;;;;;;;;;;5042012;28;20025;-79
2023/05/12 10:01:56;;;;;;;3.95;2.72;;;;;;;;;;5040316;28;20020;-79
2023/05/12 10:04:21;;;;;;;4.63;2.72;;;;;;;;;;5040766;28;20448;-78
2023/05/12 10:06:47;;;;;;;4.95;2.97;;;;;;;;;;5040377;28;20032;-77
2023/05/12 10:09:24;;;;;;;4.05;2.60;;;;;;;;;;5047144;28;20161;-78
2023/05/12 10:11:51;;;;;;;5.07;2.42;;;;;;;;;;5030882;28;20024;-79
2023/05/12 10:14:20;;;;;;;3.40;2.50;;;;;;;;;;5051824;28;20472;-82
2023/05/12 10:16:48;;;;;;;4.55;2.65;;;;;;;;;;5050374;28;20039;-81
2023/05/12 10:19:17;;;;;;;4.28;2.83;;;;;;;;;;5068728;28;20093;-77
2023/05/12 10:21:46;;;;;;;5.45;2.80;;;;;;;;;;5048938;28;20024;-82
2023/05/12 10:24:18;;;;;;;3.63;3.15;;;;;;;;;;5044720;28;20044;-79
2023/05/12 10:26:43;;;;;;;6.60;3.15;;;;;;;;;;5056242;28;20028;-80
2023/05/12 10:29:16;;;;;;;7.90;4.80;;;;;;;;;;5067978;28;20031;-82
2023/05/12 10:31:45;;;;;;;9.85;3.10;;;;;;;;;;5066651;28;20021;-79
2023/05/12 10:34:17;;;;;;;5.50;2.70;;;;;;;;;;5053271;28;20141;-79
2023/05/12 10:36:46;;;;;;;10.40;3.67;;;;;;;;;;5036576;28;20119;-81
2023/05/12 10:39:14;;;;;;;4.10;2.67;;;;;;;;;;5046192;28;20612;-80
2023/05/12 10:41:39;;;;;;;5.07;2.80;;;;;;;;;;5063538;28;20028;-78
2023/05/12 10:44:06;;;;;;;4.13;3.30;;;;;;;;;;5063197;28;20032;-84
2023/05/12 10:46:31;;;;;;;5.03;2.70;;;;;;;;;;5047509;28;20079;-78
2023/05/12 10:49:28;;;;;;;7.88;3.25;;;;;;;;;;5065563;28;20032;-80
2023/05/12 10:51:59;;;;;;;4.63;2.60;;;;;;;;;;5055642;28;20396;-86
2023/05/12 10:54:25;;;;;;;3.42;2.83;;;;;;;;;;5053875;28;20048;-80
2023/05/12 10:56:52;;;;;;;4.90;2.95;;;;;;;;;;5045713;28;20499;-82
2023/05/12 10:59:22;;;;;;;4.68;2.80;;;;;;;;;;5044968;28;20029;-81
2023/05/12 11:02:11;;;;;;;5.57;3.13;;;;;;;;;;5043684;28;20047;-79
2023/05/12 11:04:39;;;;;;;7.05;3.60;;;;;;;;;;5045120;28;20478;-78
2023/05/12 11:07:09;;;;;;;4.57;2.67;;;;;;;;;;5040479;28;20051;-79
2023/05/12 11:09:36;;;;;;;7.05;3.65;;;;;;;;;;5039974;28;20029;-79
2023/05/12 11:12:02;;;;;;;6.68;2.78;;;;;;;;;;5045407;28;20384;-77
2023/05/12 11:14:30;;;;;;;3.47;2.80;;;;;;;;;;5045306;28;20028;-77
2023/05/12 11:16:56;;;;;;;5.60;2.72;;;;;;;;;;5040820;28;20028;-82
2023/05/12 11:19:21;;;;;;;7.28;2.95;;;;;;;;;;5046029;28;20073;-80
2023/05/12 11:21:47;;;;;;;9.77;2.88;;;;;;;;;;5048038;28;20043;-79
2023/05/12 11:24:13;;;;;;;4.70;2.50;;;;;;;;;;5044443;28;20039;-79
2023/05/12 11:26:40;;;;;;;4.20;2.92;;;;;;;;;;5047128;28;20067;-82
2023/05/12 11:29:06;;;;;;;4.32;2.80;;;;;;;;;;5045119;28;20032;-81
2023/05/12 11:31:32;;;;;;;7.63;3.30;;;;;;;;;;5048529;28;20033;-80
2023/05/12 11:34:03;;;;;;;5.13;3.00;;;;;;;;;;5040764;28;20075;-82
2023/05/12 11:36:38;;;;;;;6.55;2.85;;;;;;;;;;5043691;28;20051;-80
2023/05/12 11:39:05;;;;;;;3.92;3.28;;;;;;;;;;5039560;28;20040;-76
2023/05/12 11:41:30;;;;;;;6.97;3.00;;;;;;;;;;5048466;28;20036;-80
2023/05/12 11:43:56;;;;;;;8.75;3.53;;;;;;;;;;5041998;28;21397;-78
2023/05/12 11:46:28;;;;;;;4.25;2.58;;;;;;;;;;5043319;28;20531;-78
2023/05/12 11:48:56;;;;;;;7.45;3.17;;;;;;;;;;5044528;28;20028;-78
2023/05/12 11:51:22;;;;;;;4.55;2.72;;;;;;;;;;5043050;28;20031;-80
2023/05/12 11:53:48;;;;;;;8.38;2.85;;;;;;;;;;5044823;28;20024;-80
2023/05/12 11:56:23;;;;;;;2.50;2.30;;;;;;;;;;5045744;28;20080;-79
2023/05/12 11:58:56;;;;;;;3.10;2.45;;;;;;;;;;5043654;28;20029;-79
2023/05/12 12:01:24;;;;;;;11.18;2.72;;;;;;;;;;5047311;28;20035;-80
2023/05/12 12:03:54;;;;;;;5.20;2.58;;;;;;;;;;5045866;28;20146;-81
2023/05/12 12:06:23;;;;;;;7.97;2.75;;;;;;;;;;5038274;28;20936;-80
2023/05/12 12:08:58;;;;;;;3.15;2.33;;;;;;;;;;5037019;28;20057;-78
2023/05/12 12:11:29;;;;;;;6.68;2.60;;;;;;;;;;5045305;28;20223;-77
2023/05/12 12:13:56;;;;;;;4.50;2.58;;;;;;;;;;5052042;28;20048;-78
2023/05/12 12:16:27;;;;;;;10.38;3.28;;;;;;;;;;5047231;28;20037;-79
2023/05/12 12:18:56;;;;;;;9.40;2.97;;;;;;;;;;5044738;28;20021;-81
2023/05/12 12:21:25;;;;;;;6.07;2.40;;;;;;;;;;5041208;28;20029;-79
2023/05/12 12:23:51;;;;;;;5.18;2.90;;;;;;;;;;5048047;28;20511;-78
2023/05/12 12:26:21;;;;;;;2.90;2.38;;;;;;;;;;5042827;28;20029;-78
2023/05/12 12:28:48;;;;;;;2.60;2.40;;;;;;;;;;5050040;28;20078;-79
2023/05/12 12:31:14;;;;;;;7.63;3.03;;;;;;;;;;5030741;28;20116;-77
2023/05/12 12:33:40;;;;;;;3.42;2.80;;;;;;;;;;5047381;28;20033;-79
2023/05/12 12:36:07;;;;;;;6.45;2.47;;;;;;;;;;5057005;28;20029;-80
2023/05/12 12:38:33;;;;;;;4.45;3.15;;;;;;;;;;5045511;28;20045;-79
2023/05/12 12:40:59;;;;;;;5.80;2.50;;;;;;;;;;5046962;28;20084;-79
2023/05/12 12:43:25;;;;;;;5.32;3.35;;;;;;;;;;5049750;28;20483;-78
2023/05/12 12:45:51;;;;;;;15.70;3.67;;;;;;;;;;5047040;28;20052;-78
2023/05/12 12:48:17;;;;;;;3.25;2.45;;;;;;;;;;5045490;28;20476;-80
2023/05/12 12:50:42;;;;;;;12.07;3.80;;;;;;;;;;5048459;28;20090;-80
2023/05/12 12:53:08;;;;;;;6.28;2.55;;;;;;;;;;5047850;28;20039;-82
2023/05/12 12:55:34;;;;;;;3.92;2.67;;;;;;;;;;5045446;28;20333;-79
2023/05/12 12:58:00;;;;;;;10.50;2.88;;;;;;;;;;5043580;28;20032;-80
2023/05/12 13:00:26;;;;;;;3.75;2.92;;;;;;;;;;5064927;28;20357;-78
2023/05/12 13:02:52;;;;;;;8.18;3.38;;;;;;;;;;5070207;28;20464;-79
2023/05/12 13:05:17;;;;;;;4.88;2.47;;;;;;;;;;5048861;28;20997;-79
2023/05/12 13:07:44;;;;;;;7.07;3.60;;;;;;;;;;5059437;28;20432;-80
2023/05/12 13:10:10;;;;;;;3.10;2.50;;;;;;;;;;5046301;28;20032;-81
2023/05/12 13:12:36;;;;;;;4.22;2.92;;;;;;;;;;5045179;28;20033;-77
2023/05/12 13:15:02;;;;;;;7.13;2.80;;;;;;;;;;5047233;28;20087;-81
2023/05/12 13:17:28;;;;;;;13.93;2.90;;;;;;;;;;5063944;28;20025;-77
2023/05/12 13:19:54;;;;;;;6.38;2.60;;;;;;;;;;5052579;28;20113;-78
2023/05/12 13:22:20;;;;;;;5.28;2.78;;;;;;;;;;5054715;28;20147;-77
2023/05/12 13:24:47;;;;;;;4.63;2.00;;;;;;;;;;5068129;28;20033;-80
2023/05/12 13:27:13;;;;;;;8.10;1.98;;;;;;;;;;5063777;28;20033;-78
2023/05/12 13:29:40;;;;;;;5.03;3.60;;;;;;;;;;5051934;28;20089;-79
2023/05/12 13:32:06;;;;;;;3.80;3.33;;;;;;;;;;5053323;28;20039;-77
2023/05/12 13:34:32;;;;;;;8.43;2.75;;;;;;;;;;5055323;28;20127;-78
2023/05/12 13:36:58;;;;;;;3.83;2.33;;;;;;;;;;5073329;28;20349;-78
2023/05/12 13:39:24;;;;;;;3.30;2.45;;;;;;;;;;5055171;28;20392;-78
2023/05/12 13:41:50;;;;;;;5.85;2.30;;;;;;;;;;5069993;28;20503;-78
2023/05/12 13:44:16;;;;;;;8.95;2.40;;;;;;;;;;5053814;28;20025;-79
2023/05/12 13:46:41;;;;;;;4.10;2.65;;;;;;;;;;5063687;28;20078;-79
2023/05/12 13:49:07;;;;;;;3.72;1.77;;;;;;;;;;5068779;28;20472;-79
2023/05/12 13:51:35;;;;;;;6.45;2.22;;;;;;;;;;5065779;28;20043;-79
2023/05/12 13:54:01;;;;;;;3.60;2.22;;;;;;;;;;5055650;28;20265;-80
2023/05/12 13:56:27;;;;;;;5.07;2.40;;;;;;;;;;5073238;28;20385;-76
2023/05/12 13:58:52;;;;;;;4.25;2.47;;;;;;;;;;5054853;28;20027;-79
2023/05/12 14:01:18;;;;;;;3.20;2.20;;;;;;;;;;5072151;28;20547;-81
2023/05/12 14:03:44;;;;;;;3.47;2.10;;;;;;;;;;5049829;28;20108;-78
2023/05/12 14:06:12;;;;;;;2.60;2.08;;;;;;;;;;5048408;28;20081;-81
2023/05/12 14:08:40;;;;;;;3.22;2.72;;;;;;;;;;5077688;28;20028;-80
2023/05/12 14:11:07;;;;;;;4.75;2.65;;;;;;;;;;5075069;28;20064;-81
2023/05/12 14:13:34;;;;;;;5.32;2.55;;;;;;;;;;5074307;28;20098;-78
2023/05/12 14:16:00;;;;;;;29.58;5.72;;;;;;;;;;5038996;28;20075;-77
2023/05/12 14:18:27;;;;;;;9.75;3.15;;;;;;;;;;5074676;28;20024;-79
2023/05/12 14:20:53;;;;;;;13.15;3.10;;;;;;;;;;5059604;28;20097;-81
2023/05/12 14:23:18;;;;;;;15.07;4.85;;;;;;;;;;5055078;28;20044;-80
2023/05/12 14:25:44;;;;;;;8.23;2.60;;;;;;;;;;5055830;28;20024;-80
2023/05/12 14:28:10;;;;;;;5.70;2.40;;;;;;;;;;5065558;28;20036;-83
2023/05/12 14:30:36;;;;;;;6.97;2.50;;;;;;;;;;5074651;28;20032;-79
2023/05/12 14:33:02;;;;;;;5.90;2.33;;;;;;;;;;5057635;28;20060;-78
2023/05/12 14:35:28;;;;;;;4.25;2.45;;;;;;;;;;5075543;28;20110;-80
2023/05/12 14:37:55;;;;;;;5.78;2.80;;;;;;;;;;5062580;28;20044;-80